createdAt,value
2018-03-26T00:02:11.229Z,22.77
2018-03-26T00:04:38.691Z,22.92
2018-03-26T00:07:06.394Z,22.50
2018-03-26T00:09:34.260Z,24.70
2018-03-26T00:12:02.109Z,23.77
2018-03-26T00:14:29.586Z,23.50
2018-03-26T00:16:57.128Z,24.45
2018-03-26T00:19:24.583Z,28.52
2018-03-26T00:21:52.042Z,26.85
2018-03-26T00:24:19.476Z,25.73
2018-03-26T00:26:46.932Z,26.20
2018-03-26T00:29:14.397Z,20.55
2018-03-26T00:31:41.961Z,22.55
2018-03-26T00:34:09.423Z,24.23
2018-03-26T00:36:36.874Z,23.40
2018-03-26T00:39:04.323Z,26.05
2018-03-26T00:41:31.781Z,24.95
2018-03-26T00:43:59.270Z,25.23
2018-03-26T00:46:26.724Z,23.73
2018-03-26T00:48:54.188Z,26.23
2018-03-26T00:51:21.669Z,25.40
2018-03-26T00:53:49.112Z,24.05
2018-03-26T00:56:16.599Z,23.95
2018-03-26T00:58:44.108Z,23.75
2018-03-26T01:01:11.947Z,24.33
2018-03-26T01:03:39.410Z,23.27
2018-03-26T01:06:06.864Z,26.83
2018-03-26T01:08:34.323Z,22.50
2018-03-26T01:11:01.876Z,26.40
2018-03-26T01:13:29.323Z,25.05
2018-03-26T01:15:56.811Z,24.42
2018-03-26T01:18:24.289Z,26.02
2018-03-26T01:20:51.744Z,25.52
2018-03-26T01:23:19.203Z,28.02
2018-03-26T01:25:46.633Z,24.50
2018-03-26T01:28:14.296Z,28.30
2018-03-26T01:30:41.762Z,27.90
2018-03-26T01:33:09.208Z,24.27
2018-03-26T01:35:36.645Z,24.10
2018-03-26T01:38:04.111Z,22.20
2018-03-26T01:40:31.558Z,21.45
2018-03-26T01:42:59.173Z,27.42
2018-03-26T01:45:26.603Z,26.10
2018-03-26T01:47:54.447Z,29.75
2018-03-26T01:50:21.873Z,25.42
2018-03-26T01:52:49.309Z,26.37
2018-03-26T01:55:16.741Z,26.45
2018-03-26T01:57:44.192Z,28.95
2018-03-26T02:00:11.620Z,27.33
2018-03-26T02:02:39.109Z,27.50
2018-03-26T02:05:06.530Z,26.75
2018-03-26T02:07:34.004Z,23.92
2018-03-26T02:10:01.437Z,24.67
2018-03-26T02:12:29.708Z,26.05
2018-03-26T02:14:57.133Z,20.73
2018-03-26T02:17:24.587Z,28.83
2018-03-26T02:19:52.026Z,23.38
2018-03-26T02:22:19.867Z,25.65
2018-03-26T02:24:47.305Z,26.83
2018-03-26T02:27:14.749Z,22.13
2018-03-26T02:29:42.196Z,27.80
2018-03-26T02:32:09.634Z,23.30
2018-03-26T02:34:37.086Z,25.50
2018-03-26T02:37:04.909Z,21.55
2018-03-26T02:39:32.340Z,27.45
2018-03-26T02:41:59.824Z,27.45
2018-03-26T02:44:27.231Z,22.55
2018-03-26T02:46:54.664Z,26.37
2018-03-26T02:49:22.490Z,24.30
2018-03-26T02:51:49.925Z,25.42
2018-03-26T02:54:17.370Z,31.53
2018-03-26T02:56:44.801Z,24.50
2018-03-26T02:59:12.624Z,26.15
2018-03-26T03:01:40.069Z,24.52
2018-03-26T03:04:07.495Z,22.98
2018-03-26T03:06:34.940Z,27.77
2018-03-26T03:09:02.764Z,29.70
2018-03-26T03:11:30.213Z,21.60
2018-03-26T03:13:57.865Z,21.10
2018-03-26T03:18:59.217Z,28.80
2018-03-26T03:21:26.657Z,27.27
2018-03-26T03:23:54.105Z,27.60
2018-03-26T03:26:21.941Z,26.05
2018-03-26T03:28:49.385Z,33.35
2018-03-26T03:31:16.818Z,21.90
2018-03-26T03:33:44.253Z,22.80
2018-03-26T03:36:11.704Z,25.42
2018-03-26T03:38:39.539Z,27.45
2018-03-26T03:41:06.984Z,29.25
2018-03-26T03:43:34.429Z,25.08
2018-03-26T03:46:01.868Z,26.85
2018-03-26T03:48:29.303Z,32.28
2018-03-26T03:50:56.746Z,25.45
2018-03-26T03:53:24.587Z,25.52
2018-03-26T03:55:52.025Z,28.65
2018-03-26T03:58:19.462Z,25.80
2018-03-26T04:00:46.901Z,28.35
2018-03-26T04:03:14.349Z,30.30
2018-03-26T04:05:41.787Z,27.25
2018-03-26T04:08:09.620Z,28.90
2018-03-26T04:10:37.060Z,26.60
2018-03-26T04:13:04.519Z,26.55
2018-03-26T04:15:31.964Z,27.00
2018-03-26T04:17:59.393Z,26.10
2018-03-26T04:20:26.830Z,30.70
2018-03-26T04:22:54.268Z,27.83
2018-03-26T04:25:21.704Z,31.05
2018-03-26T04:27:49.135Z,30.98
2018-03-26T04:30:16.564Z,28.73
2018-03-26T04:32:44.012Z,28.25
2018-03-26T04:35:11.443Z,29.65
2018-03-26T04:37:38.877Z,27.83
2018-03-26T04:40:06.312Z,27.30
2018-03-26T04:42:33.758Z,31.15
2018-03-26T04:45:01.196Z,31.05
2018-03-26T04:47:29.037Z,26.95
2018-03-26T04:49:56.468Z,27.13
2018-03-26T04:52:23.919Z,31.50
2018-03-26T04:54:51.341Z,24.98
2018-03-26T04:57:19.173Z,27.70
2018-03-26T04:59:46.626Z,22.87
2018-03-26T05:02:14.100Z,24.15
2018-03-26T05:04:41.490Z,24.65
2018-03-26T05:07:08.929Z,29.90
2018-03-26T05:09:36.367Z,33.33
2018-03-26T05:12:03.836Z,26.77
2018-03-26T05:14:31.658Z,31.52
2018-03-26T05:16:59.097Z,31.60
2018-03-26T05:19:26.545Z,29.35
2018-03-26T05:21:53.980Z,28.40
2018-03-26T05:24:21.417Z,24.60
2018-03-26T05:26:49.287Z,30.20
2018-03-26T05:29:16.733Z,27.92
2018-03-26T05:31:44.187Z,28.58
2018-03-26T05:34:11.629Z,32.85
2018-03-26T05:36:39.052Z,27.08
2018-03-26T05:39:06.504Z,32.63
2018-03-26T05:41:33.933Z,28.75
2018-03-26T05:44:01.363Z,28.87
2018-03-26T05:46:28.836Z,23.67
2018-03-26T05:48:56.260Z,31.45
2018-03-26T05:51:23.688Z,27.98
2018-03-26T05:53:51.128Z,27.65
2018-03-26T05:56:18.568Z,27.52
2018-03-26T05:58:46.633Z,29.17
2018-03-26T06:01:14.068Z,31.83
2018-03-26T06:03:41.509Z,29.95
2018-03-26T06:06:09.084Z,29.98
2018-03-26T06:08:36.541Z,29.27
2018-03-26T06:11:03.978Z,36.25
2018-03-26T06:13:32.198Z,27.75
2018-03-26T06:15:59.634Z,29.15
2018-03-26T06:18:27.072Z,32.72
2018-03-26T06:20:54.510Z,31.08
2018-03-26T06:23:21.956Z,26.65
2018-03-26T06:25:49.388Z,34.00
2018-03-26T06:28:17.224Z,31.50
2018-03-26T06:30:44.674Z,31.12
2018-03-26T06:33:12.105Z,29.33
2018-03-26T06:35:39.540Z,36.10
2018-03-26T06:38:12.705Z,23.27
2018-03-26T06:40:40.527Z,32.30
2018-03-26T06:43:07.969Z,31.95
2018-03-26T06:45:35.404Z,26.20
2018-03-26T06:48:02.888Z,24.90
2018-03-26T06:50:30.323Z,33.22
2018-03-26T06:52:57.756Z,22.15
2018-03-26T06:55:26.066Z,25.85
2018-03-26T06:57:53.505Z,29.65
2018-03-26T07:00:20.936Z,24.50
2018-03-26T07:02:48.781Z,26.55
2018-03-26T07:05:16.209Z,25.75
2018-03-26T07:07:43.701Z,27.55
2018-03-26T07:10:11.118Z,28.80
2018-03-26T07:12:38.605Z,25.55
2018-03-26T07:15:06.041Z,30.37
2018-03-26T07:17:33.498Z,24.67
2018-03-26T07:20:00.923Z,30.45
2018-03-26T07:22:28.363Z,24.67
2018-03-26T07:24:55.810Z,22.42
2018-03-26T07:27:23.331Z,24.70
2018-03-26T07:29:50.746Z,25.90
2018-03-26T07:32:18.179Z,28.65
2018-03-26T07:34:45.634Z,25.98
2018-03-26T07:37:13.063Z,21.98
2018-03-26T07:39:40.511Z,29.37
2018-03-26T07:42:07.932Z,33.67
2018-03-26T07:44:35.372Z,32.42
2018-03-26T07:47:03.200Z,31.37
2018-03-26T07:49:30.645Z,30.20
2018-03-26T07:51:58.129Z,25.00
2018-03-26T07:54:25.520Z,28.30
2018-03-26T07:56:52.958Z,23.33
2018-03-26T07:59:20.396Z,28.50
2018-03-26T08:01:47.833Z,28.15
2018-03-26T08:04:15.280Z,23.45
2018-03-26T08:06:42.705Z,25.33
2018-03-26T08:09:10.148Z,28.98
2018-03-26T08:11:37.971Z,30.05
2018-03-26T08:14:05.412Z,29.00
2018-03-26T08:16:32.844Z,26.77
2018-03-26T08:19:00.280Z,25.48
2018-03-26T08:21:27.792Z,31.62
2018-03-26T08:23:55.220Z,26.35
2018-03-26T08:26:22.673Z,27.87
2018-03-26T08:28:50.104Z,29.33
2018-03-26T08:31:17.953Z,26.10
2018-03-26T08:33:45.425Z,25.67
2018-03-26T08:36:12.866Z,26.42
2018-03-26T08:38:40.313Z,23.15
2018-03-26T08:41:07.745Z,26.40
2018-03-26T08:43:35.189Z,31.17
2018-03-26T08:46:02.625Z,31.52
2018-03-26T08:48:30.065Z,29.73
2018-03-26T08:50:57.896Z,26.10
2018-03-26T08:53:25.388Z,23.35
2018-03-26T08:55:52.812Z,30.00
2018-03-26T08:58:20.254Z,27.30
2018-03-26T09:00:47.751Z,26.95
2018-03-26T09:03:15.190Z,26.62
2018-03-26T09:05:42.630Z,26.83
2018-03-26T09:08:10.081Z,21.35
2018-03-26T09:10:37.500Z,21.90
2018-03-26T09:13:04.932Z,28.58
2018-03-26T09:15:32.418Z,26.05
2018-03-26T09:17:59.917Z,27.30
2018-03-26T09:20:27.362Z,23.95
2018-03-26T09:22:54.872Z,24.87
2018-03-26T09:25:22.305Z,23.23
2018-03-26T09:27:49.735Z,24.17
2018-03-26T09:30:17.208Z,26.77
2018-03-26T09:32:44.640Z,27.48
2018-03-26T09:35:12.081Z,23.60
2018-03-26T09:37:39.513Z,25.55
2018-03-26T09:40:06.968Z,27.07
2018-03-26T09:42:34.409Z,25.30
2018-03-26T09:45:01.861Z,25.48
2018-03-26T09:47:29.294Z,25.90
2018-03-26T09:49:56.748Z,26.48
2018-03-26T09:52:24.184Z,28.02
2018-03-26T09:54:51.681Z,27.25
2018-03-26T09:57:19.108Z,23.85
2018-03-26T09:59:46.569Z,25.45
2018-03-26T10:02:14.009Z,25.17
2018-03-26T10:04:41.448Z,26.98
2018-03-26T10:07:08.890Z,28.85
2018-03-26T10:09:36.319Z,22.83
2018-03-26T10:12:03.760Z,21.62
2018-03-26T10:14:31.217Z,29.50
2018-03-26T10:16:58.665Z,25.52
2018-03-26T10:19:26.340Z,23.90
2018-03-26T10:21:53.785Z,24.42
2018-03-26T10:24:21.281Z,22.52
2018-03-26T10:26:48.710Z,23.85
2018-03-26T10:29:16.140Z,26.27
2018-03-26T10:31:43.568Z,23.00
2018-03-26T10:34:11.004Z,20.90
2018-03-26T10:36:38.449Z,23.30
2018-03-26T10:39:05.908Z,24.55
2018-03-26T10:41:33.336Z,19.67
2018-03-26T10:44:00.774Z,22.50
2018-03-26T10:46:28.195Z,21.90
2018-03-26T10:48:56.035Z,17.97
2018-03-26T10:51:23.460Z,19.23
2018-03-26T10:53:50.909Z,21.08
2018-03-26T10:56:18.335Z,21.55
2018-03-26T10:58:46.172Z,22.80
2018-03-26T11:01:13.632Z,21.43
2018-03-26T11:03:41.081Z,21.92
2018-03-26T11:06:08.510Z,24.97
2018-03-26T11:08:35.973Z,20.77
2018-03-26T11:11:03.448Z,26.70
2018-03-26T11:13:30.848Z,25.75
2018-03-26T11:15:58.684Z,37.78
2018-03-26T11:18:26.123Z,31.60
2018-03-26T11:20:53.574Z,32.72
2018-03-26T11:23:21.005Z,33.45
2018-03-26T11:25:48.453Z,34.10
2018-03-26T11:28:15.879Z,33.13
2018-03-26T11:30:43.320Z,29.37
2018-03-26T11:33:10.760Z,32.28
2018-03-26T11:35:38.203Z,36.88
2018-03-26T11:38:05.651Z,32.80
2018-03-26T11:40:33.101Z,37.60
2018-03-26T11:43:00.540Z,34.58
2018-03-26T11:45:27.997Z,42.78
2018-03-26T11:47:55.455Z,39.28
2018-03-26T11:50:22.910Z,38.25
2018-03-26T11:52:50.748Z,39.50
2018-03-26T11:55:18.191Z,35.55
2018-03-26T11:57:45.669Z,37.75
2018-03-26T12:00:13.078Z,39.08
2018-03-26T12:02:40.513Z,32.08
2018-03-26T12:05:07.955Z,36.33
2018-03-26T12:07:35.790Z,33.40
2018-03-26T12:10:03.236Z,35.22
2018-03-26T12:12:30.680Z,35.83
2018-03-26T12:14:58.121Z,34.97
2018-03-26T12:17:25.549Z,35.08
2018-03-26T12:20:04.806Z,26.65
2018-03-26T12:22:32.244Z,31.15
2018-03-26T12:25:12.741Z,30.30
2018-03-26T12:27:51.783Z,34.40
2018-03-26T12:30:22.873Z,32.50
2018-03-26T12:32:50.317Z,34.67
2018-03-26T12:35:29.980Z,28.73
2018-03-26T12:37:57.788Z,33.80
2018-03-26T12:40:36.956Z,30.80
2018-03-26T12:43:04.793Z,26.63
2018-03-26T12:45:44.021Z,27.30
2018-03-26T12:48:11.450Z,25.50
2018-03-26T12:50:50.713Z,30.20
2018-03-26T12:53:18.145Z,32.80
2018-03-26T12:55:45.584Z,30.25
2018-03-26T13:01:27.516Z,28.90
2018-03-26T13:03:54.957Z,31.33
2018-03-26T13:06:22.419Z,30.43
2018-03-26T13:08:49.861Z,24.40
2018-03-26T13:11:17.299Z,26.30
2018-03-26T13:13:45.165Z,29.70
2018-03-26T13:16:12.581Z,26.77
2018-03-26T13:18:40.009Z,28.40
2018-03-26T13:21:07.454Z,26.93
2018-03-26T13:23:34.901Z,32.20
2018-03-26T13:26:02.361Z,27.60
2018-03-26T13:28:30.231Z,31.80
2018-03-26T13:30:57.686Z,27.33
2018-03-26T13:33:25.120Z,27.70
2018-03-26T13:35:52.560Z,28.73
2018-03-26T13:38:19.991Z,33.67
2018-03-26T13:40:47.425Z,33.97
2018-03-26T13:43:14.861Z,33.60
2018-03-26T13:45:42.701Z,31.60
2018-03-26T13:48:10.141Z,39.60
2018-03-26T13:50:37.596Z,29.77
2018-03-26T13:53:05.076Z,32.67
2018-03-26T13:55:32.695Z,34.97
2018-03-26T13:58:00.137Z,31.43
2018-03-26T14:00:27.576Z,38.90
2018-03-26T14:02:55.008Z,33.10
2018-03-26T14:05:22.444Z,38.37
2018-03-26T14:07:49.877Z,35.90
2018-03-26T14:10:28.944Z,37.50
2018-03-26T14:13:08.202Z,36.20
2018-03-26T14:15:47.526Z,31.47
2018-03-26T14:18:14.956Z,29.93
2018-03-26T14:20:42.398Z,38.90
2018-03-26T14:23:09.824Z,34.40
2018-03-26T14:25:37.272Z,31.10
2018-03-26T14:28:04.703Z,34.00
2018-03-26T14:30:32.158Z,31.67
2018-03-26T14:32:59.616Z,31.93
2018-03-26T14:35:41.935Z,27.20
2018-03-26T14:38:09.762Z,29.93
2018-03-26T14:40:37.193Z,30.47
2018-03-26T14:43:04.666Z,28.10
2018-03-26T14:45:32.065Z,32.53
2018-03-26T14:47:59.928Z,32.37
2018-03-26T14:50:27.763Z,30.67
2018-03-26T14:52:55.208Z,33.90
2018-03-26T14:55:22.664Z,30.80
2018-03-26T14:57:50.080Z,34.10
2018-03-26T15:00:17.526Z,36.05
2018-03-26T15:02:44.996Z,37.20
2018-03-26T15:05:12.390Z,35.13
2018-03-26T15:07:39.832Z,36.53
2018-03-26T15:10:07.264Z,34.20
2018-03-26T15:12:34.703Z,34.70
2018-03-26T15:15:02.524Z,35.80
2018-03-26T15:17:30.002Z,35.42
2018-03-26T15:19:57.421Z,35.85
2018-03-26T15:22:24.864Z,30.30
2018-03-26T15:24:52.313Z,34.03
2018-03-26T15:27:19.783Z,35.00
2018-03-26T15:29:47.196Z,34.73
2018-03-26T15:32:14.638Z,32.60
2018-03-26T15:34:42.513Z,35.78
2018-03-26T15:37:09.948Z,33.80
2018-03-26T15:39:37.396Z,34.13
2018-03-26T15:42:04.934Z,33.57
2018-03-26T15:44:32.398Z,33.08
2018-03-26T15:47:00.719Z,30.97
2018-03-26T15:49:28.457Z,33.30
2018-03-26T15:51:55.923Z,36.43
2018-03-26T15:54:23.914Z,33.65
2018-03-26T15:56:51.509Z,35.43
2018-03-26T15:59:19.048Z,31.70
2018-03-26T16:01:46.520Z,36.00
2018-03-26T16:04:14.014Z,30.88
2018-03-26T16:06:41.491Z,38.65
2018-03-26T16:09:08.952Z,31.63
2018-03-26T16:11:36.412Z,31.00
2018-03-26T16:14:04.884Z,42.37
2018-03-26T16:16:32.499Z,36.03
2018-03-26T16:18:59.958Z,31.67
2018-03-26T16:23:48.858Z,30.52
2018-03-26T16:26:16.493Z,37.97
2018-03-26T16:28:43.981Z,33.77
2018-03-26T16:31:11.415Z,31.90
2018-03-26T16:33:38.877Z,37.90
2018-03-26T16:36:06.336Z,32.17
2018-03-26T16:38:33.832Z,32.93
2018-03-26T16:41:01.445Z,33.47
2018-03-26T16:43:33.238Z,34.03
2018-03-26T16:46:01.200Z,37.17
2018-03-26T16:48:28.648Z,33.97
2018-03-26T16:50:56.113Z,38.10
2018-03-26T16:53:23.565Z,34.90
2018-03-26T16:55:51.025Z,31.83
2018-03-26T16:58:18.483Z,30.92
2018-03-26T17:00:45.956Z,37.58
2018-03-26T17:03:13.405Z,37.55
2018-03-26T17:05:40.889Z,35.30
2018-03-26T17:08:08.370Z,33.93
2018-03-26T17:10:35.821Z,35.83
2018-03-26T17:13:03.295Z,35.60
2018-03-26T17:15:30.748Z,39.53
2018-03-26T17:17:58.203Z,35.60
2018-03-26T17:20:25.663Z,36.47
2018-03-26T17:22:53.551Z,38.33
2018-03-26T17:25:21.829Z,35.03
2018-03-26T17:27:49.345Z,38.87
2018-03-26T17:30:17.196Z,38.93
2018-03-26T17:32:45.061Z,32.47
2018-03-26T17:35:12.888Z,33.05
2018-03-26T17:37:40.374Z,28.23
2018-03-26T17:40:07.797Z,29.80
2018-03-26T17:42:35.258Z,35.30
2018-03-26T17:45:02.700Z,31.45
2018-03-26T17:47:30.139Z,32.10
2018-03-26T17:49:57.584Z,33.75
2018-03-26T17:52:25.024Z,33.53
2018-03-26T17:54:52.861Z,37.78
2018-03-26T17:57:20.305Z,40.90
2018-03-26T17:59:47.736Z,39.78
2018-03-26T18:02:15.188Z,41.45
2018-03-26T18:04:42.624Z,37.15
2018-03-26T18:07:10.121Z,47.73
2018-03-26T18:09:37.561Z,39.83
2018-03-26T18:12:05.017Z,36.22
2018-03-26T18:14:32.472Z,38.90
2018-03-26T18:16:59.904Z,44.17
2018-03-26T18:19:27.754Z,34.97
2018-03-26T18:21:55.176Z,36.00
2018-03-26T18:24:22.625Z,32.78
2018-03-26T18:26:50.051Z,41.00
2018-03-26T18:29:17.496Z,36.50
2018-03-26T18:31:44.945Z,45.00
2018-03-26T18:34:12.435Z,36.27
2018-03-26T18:36:39.856Z,33.15
2018-03-26T18:39:07.296Z,36.27
2018-03-26T18:41:34.720Z,30.00
2018-03-26T18:44:02.158Z,24.55
2018-03-26T18:46:29.588Z,20.23
2018-03-26T18:48:57.435Z,19.67
2018-03-26T18:51:24.864Z,17.80
2018-03-26T18:53:52.306Z,11.80
2018-03-26T18:56:19.735Z,14.45
2018-03-26T18:58:47.173Z,14.20
2018-03-26T19:01:14.609Z,12.73
2018-03-26T19:03:42.044Z,16.37
2018-03-26T19:06:09.505Z,12.68
2018-03-26T19:08:36.960Z,8.38
2018-03-26T19:11:04.418Z,9.75
2018-03-26T19:13:31.869Z,9.00
2018-03-26T19:15:59.293Z,6.65
2018-03-26T19:18:27.112Z,8.25
2018-03-26T19:20:54.550Z,8.07
2018-03-26T19:23:21.977Z,6.65
2018-03-26T19:25:49.459Z,7.20
2018-03-26T19:28:16.871Z,8.65
2018-03-26T19:30:44.296Z,7.37
2018-03-26T19:33:11.737Z,9.07
2018-03-26T19:35:39.163Z,12.93
2018-03-26T19:38:06.613Z,12.68
2018-03-26T19:40:34.057Z,11.75
2018-03-26T19:43:02.063Z,10.10
2018-03-26T19:45:29.474Z,11.40
2018-03-26T19:47:56.911Z,12.48
2018-03-26T19:50:24.334Z,13.77
2018-03-26T19:52:51.773Z,10.63
2018-03-26T19:55:19.203Z,13.88
2018-03-26T19:57:47.041Z,11.68
2018-03-26T20:00:14.473Z,16.75
2018-03-26T20:02:41.926Z,13.70
2018-03-26T20:05:09.358Z,9.60
2018-03-26T20:07:36.773Z,19.05
2018-03-26T20:10:04.208Z,11.57
2018-03-26T20:12:31.642Z,13.80
2018-03-26T20:14:59.208Z,17.02
2018-03-26T20:17:26.628Z,12.40
2018-03-26T20:19:54.066Z,12.70
2018-03-26T20:22:21.949Z,20.25
2018-03-26T20:24:49.375Z,24.33
2018-03-26T20:27:16.819Z,20.77
2018-03-26T20:29:44.252Z,17.77
2018-03-26T20:32:11.717Z,18.52
2018-03-26T20:34:39.265Z,18.70
2018-03-26T20:37:06.702Z,22.80
2018-03-26T20:39:34.148Z,24.00
2018-03-26T20:42:02.003Z,22.60
2018-03-26T20:44:29.598Z,18.60
2018-03-26T20:46:57.089Z,20.95
2018-03-26T20:49:24.523Z,20.83
2018-03-26T20:51:51.968Z,20.10
2018-03-26T20:54:19.408Z,14.15
2018-03-26T20:56:46.836Z,13.30
2018-03-26T20:59:19.189Z,12.95
2018-03-26T21:01:46.620Z,13.77
2018-03-26T21:04:14.054Z,13.35
2018-03-26T21:06:41.484Z,11.00
2018-03-26T21:09:08.918Z,12.27
2018-03-26T21:11:36.370Z,16.20
2018-03-26T21:14:03.844Z,16.70
2018-03-26T21:16:31.318Z,12.20
2018-03-26T21:18:59.154Z,11.35
2018-03-26T21:21:26.585Z,13.52
2018-03-26T21:23:54.026Z,11.95
2018-03-26T21:26:21.455Z,11.20
2018-03-26T21:28:49.357Z,10.50
2018-03-26T21:31:16.800Z,12.50
2018-03-26T21:33:44.237Z,11.43
2018-03-26T21:36:11.681Z,8.82
2018-03-26T21:38:39.508Z,10.77
2018-03-26T21:41:06.949Z,7.15
2018-03-26T21:43:34.378Z,7.60
2018-03-26T21:46:01.819Z,8.00
2018-03-26T21:48:29.245Z,5.82
2018-03-26T21:50:56.711Z,10.05
2018-03-26T21:53:24.129Z,8.95
2018-03-26T21:55:51.591Z,5.85
2018-03-26T21:58:18.996Z,5.78
2018-03-26T22:00:46.821Z,6.62
2018-03-26T22:03:14.254Z,6.07
2018-03-26T22:05:41.677Z,5.90
2018-03-26T22:08:09.550Z,7.12
2018-03-26T22:10:36.968Z,5.82
2018-03-26T22:13:04.401Z,5.65
2018-03-26T22:15:31.847Z,10.05
2018-03-26T22:17:59.292Z,10.18
2018-03-26T22:20:27.098Z,7.37
2018-03-26T22:22:54.533Z,5.87
2018-03-26T22:25:21.951Z,5.65
2018-03-26T22:27:49.376Z,7.25
2018-03-26T22:30:16.805Z,5.40
2018-03-26T22:32:44.238Z,6.25
2018-03-26T22:35:12.234Z,5.32
2018-03-26T22:37:39.660Z,6.87
2018-03-26T22:40:07.463Z,4.03
2018-03-26T22:42:34.908Z,4.43
2018-03-26T22:45:02.362Z,6.28
2018-03-26T22:47:29.781Z,6.82
2018-03-26T22:49:57.601Z,5.47
2018-03-26T22:52:25.032Z,5.55
2018-03-26T22:54:52.461Z,4.60
2018-03-26T22:57:19.892Z,5.55
2018-03-26T23:12:43.321Z,5.57
2018-03-26T23:15:10.789Z,6.60
2018-03-26T23:17:38.216Z,4.55
2018-03-26T23:20:05.655Z,7.47
2018-03-26T23:22:45.516Z,5.35
2018-03-26T23:25:12.980Z,4.45
2018-03-26T23:27:40.410Z,3.92
2018-03-26T23:30:07.845Z,3.85
2018-03-26T23:32:35.261Z,6.87
2018-03-26T23:35:02.733Z,5.20
2018-03-26T23:37:30.162Z,8.40
2018-03-26T23:39:57.595Z,7.03
2018-03-26T23:42:25.017Z,4.65
2018-03-26T23:44:52.457Z,6.20
2018-03-26T23:47:19.884Z,9.25
2018-03-26T23:49:47.324Z,6.30
2018-03-26T23:52:14.763Z,5.93
2018-03-26T23:54:42.184Z,6.32
2018-03-26T23:57:09.596Z,5.10
2018-03-26T23:59:37.025Z,6.03
